Tiempo atmosférico en la estación meteorológica de Labastida, Araba/Álava (610 m.)



Fecha
DESCASC
Temp. máxima en grados centígrados (hora)
DESCASC
Temp. mínima en grados centígrados (hora)
DESCASC
Temp. media en grados centígrados
DESCASC
Racha de viento máxima en m/sg (hora)
DESCASC
Velocidad máxima media en intervalos de 10 minutos(hora)
DESCASC
Precipitaciones diarias en mm
DESCASC
Precipitaciones de 00:00 a 06:00 en mm
DESCASC
Precipitaciones de 06:00 a 12:00 en mm
DESCASC
Precipitaciones de 12:00 a 18:00 en mm
DESCASC
Precipitaciones de 18:00 a 24:00 en mm
DESCASC
16-06-2019 28.4 (16:40) 7.5 (06:40) 17.9 6.94 (13:50) 3.89 (13:50) 0 0 0 0 0
15-06-2019 22.9 (16:50) 9.7 (06:00) 16.3 11.39 (20:40) 5.28 (20:30) 0 0 0 0 0
14-06-2019 24.7 (17:10) 8.9 (06:00) 16.8 11.11 (22:00) 5 (19:50) 0 0 0 0 0
13-06-2019 27.2 (17:30) 6.3 (00:00) 16.8 14.72 (20:50) 7.22 (20:40) 0 0 0 0 0
12-06-2019 21.9 (18:10) 4.6 (00:00) 13.2 12.22 (21:50) 6.11 (21:50) 0 0 0 0 0
11-06-2019 14.9 (15:30) 8 (00:00) 11.4 8.89 (13:10) 3.61 (00:50) 3.6 2.2 0 1.2 0.2
10-06-2019 18 (16:20) 9.3 (00:00) 13.7 12.22 (21:40) 6.11 (21:10) 0 0 0 0 0
09-06-2019 23.3 (14:40) 9 (00:00) 16.1 15.83 (19:00) 8.33 (18:30) 0 0 0 0 0
08-06-2019 23.8 (16:50) 5.9 (00:00) 14.8 10.56 (21:10) 6.11 (21:10) 0 0 0 0 0
07-06-2019 19 (18:00) 8.6 (00:00) 13.8 10.83 (21:10) 4.72 (21:20) 0.8 0.8 0 0 0
06-06-2019 23.9 (17:00) 7.4 (00:00) 15.6 11.11 (18:20) 6.39 (18:20) 0 0 0 0 0
05-06-2019 16 (14:30) 8.8 (00:00) 12.4 12.5 (00:50) 5 (00:50) 10.8 1.4 8.4 1 0
04-06-2019 27.8 (14:20) 12 (00:00) 19.9 17.78 (20:20) 9.17 (20:10) 0 0 0 0 0
03-06-2019 30.4 (18:00) 14 (00:00) 22.2 6.94 (16:30) 3.06 (19:10) 0 0 0 0 0
02-06-2019 31.6 (17:00) 15.2 (00:00) 23.4 6.94 (14:00) 3.89 (04:10) 0 0 0 0 0
01-06-2019 30.6 (16:30) 11.8 (00:00) 21.2 6.67 (16:40) 3.89 (16:40) 0 0 0 0 0
31-05-2019 30.5 (18:00) 9.7 (00:00) 20.1 5.56 (16:40) 2.78 (14:50) 0 0 0 0 0
30-05-2019 27.1 (18:20) 6.6 (00:00) 16.9 7.5 (21:30) 3.61 (14:50) 0 0 0 0 0
29-05-2019 17.7 (18:10) 9.3 (00:00) 13.5 8.06 (10:30) 2.78 (18:20) 0 0 0 0 0
28-05-2019 14.5 (16:00) 8.9 (00:00) 11.7 9.72 (01:00) 3.61 (12:40) 0 0 0 0 0
27-05-2019 19.1 (16:40) 10.5 (00:00) 14.8 13.61 (20:40) 5.83 (20:20) 0 0 0 0 0
26-05-2019 15.5 (18:40) 8.8 (00:00) 12.2 8.61 (19:40) 4.17 (20:10) 0.4 0 0.4 0 0
25-05-2019 13.2 (19:10) 9.5 (00:00) 11.3 10.28 (00:30) 4.17 (00:10) 0.8 0.4 0 0.4 0
24-05-2019 15.8 (15:40) 10.3 (00:00) 13.1 14.72 (02:30) 6.39 (02:30) 6.4 6.2 0.2 0 0
23-05-2019 23 (16:50) 10.1 (00:00) 16.6 15.56 (22:00) 7.5 (21:20) 2 0 0 0 2
22-05-2019 -- (--) -- (--) -- -- (--) -- (--) -- 0 -- -- 0

Gráficas

Temp. máximas Temp. mínimas Temp. medias Precipitaciones Rachas de viento máximas Velocidades máximas media en intervalos de 10 minutos

Datos horarios

Fecha y hora oficial Temperatura (ºC) Velocidad del viento (km/h) Dirección del viento Racha (km/h) Dirección de racha Precipitación (mm) Presión (hPa) Tendencia (hPa) Humedad (%)
2019-06-20 23:00:00 13.9 16 Nordeste 42 Norte 0.6 -- -- 84
2019-06-20 22:00:00 14.9 16 Nordeste 31 Nordeste 0 -- -- 77
2019-06-20 21:00:00 15.7 10 Nordeste 42 Norte 0 -- -- 74
2019-06-20 20:00:00 15.8 17 Nordeste 33 Norte 0 -- -- 78
2019-06-20 19:00:00 17.2 13 Nordeste 32 Nordeste 0 -- -- 70
2019-06-20 18:00:00 18.8 18 Nordeste 35 Nordeste 0 -- -- 62
2019-06-20 17:00:00 20.5 13 Nordeste 34 Norte 0 -- -- 59
2019-06-20 16:00:00 18.8 8 Nordeste 27 Norte 0 -- -- 65
2019-06-20 15:00:00 19.4 9 Nordeste 25 Nordeste 0 -- -- 63
2019-06-20 14:00:00 18.8 10 Nordeste 24 Norte 0 -- -- 67
2019-06-20 13:00:00 19.9 7 Nordeste 23 Norte 0 -- -- 62
2019-06-20 12:00:00 19.6 7 Nordeste 20 Nordeste 0 -- -- 62
2019-06-20 11:00:00 18 8 Nordeste 20 Nordeste 0 -- -- 65
2019-06-20 10:00:00 16.5 7 Nordeste 19 Este 0 -- -- 73
2019-06-20 09:00:00 15.6 6 Este 14 Este 0 -- -- 75
2019-06-20 08:00:00 15 5 Sudoeste 15 Noroeste 0 -- -- 81
2019-06-20 07:00:00 14.1 6 Sudoeste 12 Este 0 -- -- 85
2019-06-20 06:00:00 14 2 Sudoeste 8 Norte 0 -- -- 86
2019-06-20 05:00:00 13.3 0 Calma 6 Norte 0 -- -- 87
2019-06-20 04:00:00 13.8 3 Nordeste 12 Sur 0 -- -- 86
2019-06-20 03:00:00 14.9 6 Sudoeste 25 Nordeste 0 -- -- 83
2019-06-20 02:00:00 14.8 11 Nordeste 29 Norte 0 -- -- 84
2019-06-20 01:00:00 15.3 10 Nordeste 31 Nordeste 0 -- -- 82
2019-06-20 00:00:00 15.8 14 Norte 42 Norte 0 -- -- 80
2019-06-19 23:00:00 16.1 21 Nordeste 46 Norte 0 -- -- 81
2019-06-19 22:00:00 18.6 16 Nordeste 35 Norte 0 -- -- 70
2019-06-19 21:00:00 21.1 12 Nordeste 27 Nordeste 0 -- -- 62
2019-06-19 20:00:00 24.2 8 Nordeste 18 Norte 0 -- -- 50
2019-06-19 19:00:00 24.7 4 Oeste 15 Oeste 0 -- -- 42
2019-06-19 18:00:00 24.8 6 Sudoeste 21 Oeste 0 -- -- 43
2019-06-19 17:00:00 24.9 5 Oeste 17 Oeste 0 -- -- 42
2019-06-19 16:00:00 24.9 6 Oeste 20 Sur 0 -- -- 41
2019-06-19 15:00:00 24.8 10 Oeste -- -- -- -- -- 40
2019-06-19 14:00:00 -- -- -- -- -- -- -- -- --
2019-06-19 13:00:00 23.2 9 Sudoeste -- -- -- -- -- 46
2019-06-19 12:00:00 -- -- -- -- -- -- -- -- --
2019-06-19 11:00:00 -- -- -- -- -- -- -- -- --
2019-06-19 10:00:00 -- -- -- -- -- -- -- -- --
2019-06-19 09:00:00 -- -- -- -- -- -- -- -- --
2019-06-19 08:00:00 -- -- -- -- -- -- -- -- --
2019-06-19 07:00:00 -- -- -- -- -- -- -- -- --
2019-06-19 06:00:00 -- -- -- -- -- -- -- -- --
2019-06-19 05:00:00 -- -- -- -- -- -- -- -- --
2019-06-19 04:00:00 -- -- -- -- -- -- -- -- --
2019-06-19 03:00:00 -- -- -- -- -- -- -- -- --
2019-06-19 02:00:00 -- -- -- -- -- -- -- -- --
2019-06-19 01:00:00 -- -- -- -- -- -- -- -- --
2019-06-19 00:00:00 -- -- -- -- -- -- -- -- --
2019-06-18 23:00:00 -- -- -- -- -- -- -- -- --
2019-06-18 22:00:00 -- -- -- -- -- -- -- -- --
2019-06-18 21:00:00 -- -- -- -- -- -- -- -- --
2019-06-18 20:00:00 -- -- -- -- -- -- -- -- --
2019-06-18 19:00:00 30.6 16 Sudoeste 39 Sudoeste 0 -- -- 16
2019-06-18 18:00:00 32.1 11 Sudoeste 32 Sur 0 -- -- 16
2019-06-18 17:00:00 32.1 17 Sur 39 Sur 0 -- -- 18
2019-06-18 16:00:00 32.2 13 Sur 31 Sudeste 0 -- -- 17
2019-06-18 15:00:00 31.2 12 Sur 22 Sur 0 -- -- 22
2019-06-18 14:00:00 30.2 6 Sur 22 Sudeste 0 -- -- 24
2019-06-18 13:00:00 28.9 4 Sur 21 Sudeste 0 -- -- 27
2019-06-18 12:00:00 27.3 9 Sudeste 25 Sur 0 -- -- 32
2019-06-18 11:00:00 25.5 10 Sudeste 22 Sur 0 -- -- 35
2019-06-18 10:00:00 23.4 12 Sur 26 Sur 0 -- -- 42
2019-06-18 09:00:00 20.8 5 Noroeste 21 Oeste 0 -- -- 52
2019-06-18 08:00:00 20.3 6 Sudeste 18 Sudeste 0 -- -- 49
2019-06-18 07:00:00 17.9 4 Noroeste 17 Oeste 0 -- -- 52
2019-06-18 06:00:00 17 3 Nordeste 14 Sur 0 -- -- 49
2019-06-18 05:00:00 19.2 2 Norte 10 Norte 0 -- -- 39
2019-06-18 04:00:00 20.6 5 Norte 13 Norte 0 -- -- 38
2019-06-18 03:00:00 20.1 3 Norte 12 Norte 0 -- -- 49
2019-06-18 02:00:00 21.3 3 Noroeste 15 Nordeste 0 -- -- 57
2019-06-18 01:00:00 21.5 3 Norte 15 Oeste 0 -- -- 56
2019-06-18 00:00:00 23.1 0 Calma 14 Nordeste 0 -- -- 40
2019-06-17 23:00:00 25.4 9 Norte 19 Norte 0 -- -- 39
2019-06-17 22:00:00 26 5 Nordeste 12 Nordeste 0 -- -- 34
2019-06-17 21:00:00 27 4 Nordeste 12 Nordeste 0 -- -- 32
2019-06-17 20:00:00 28.2 4 Nordeste 10 Nordeste 0 -- -- 31
2019-06-17 19:00:00 30.2 2 Nordeste 10 Sudeste 0 -- -- 25
2019-06-17 18:00:00 30.3 5 Sudeste 19 Sudeste 0 -- -- 25
2019-06-17 17:00:00 31 10 Sudeste 21 Sur 0 -- -- 25
2019-06-17 16:00:00 30.6 10 Sudeste 20 Sur 0 -- -- 25
2019-06-17 15:00:00 30.2 9 Sudeste 22 Sudeste 0 -- -- 27
2019-06-17 14:00:00 29 8 Sudeste 22 Sudoeste 0 -- -- 28
2019-06-17 13:00:00 26.8 8 Sur 18 Sur 0 -- -- 37
2019-06-17 12:00:00 24.5 6 Sudeste 17 Sudeste 0 -- -- 49
2019-06-17 11:00:00 21 7 Sur 11 Sur 0 -- -- 62
2019-06-17 10:00:00 18.6 4 Sudeste 8 Sur 0 -- -- 67
2019-06-17 09:00:00 15.5 2 Sur 5 Sur 0 -- -- 79
2019-06-17 08:00:00 12.9 2 Este 4 Sudeste 0 -- -- 85
2019-06-17 07:00:00 11.3 0 Calma 4 Nordeste 0 -- -- 88
2019-06-17 06:00:00 11.8 2 Nordeste 5 Norte 0 -- -- 87
2019-06-17 05:00:00 13 3 Nordeste 6 Nordeste 0 -- -- 80
2019-06-17 04:00:00 13.5 0 Calma 5 Norte 0 -- -- 76
2019-06-17 03:00:00 14.9 0 Calma 6 Nordeste 0 -- -- 69
2019-06-17 02:00:00 16.7 0 Calma 6 Norte 0 -- -- 60
2019-06-17 01:00:00 18 0 Calma 12 Este 0 -- -- 57
2019-06-17 00:00:00 21 5 Este 15 Nordeste 0 -- -- 48
2019-06-16 23:00:00 22.4 8 Este 19 Norte 0 -- -- 40
2019-06-16 22:00:00 22.4 9 Nordeste 18 Nordeste 0 -- -- 46
2019-06-16 21:00:00 23.8 8 Nordeste 16 Nordeste 0 -- -- 47
2019-06-16 20:00:00 26.8 4 Nordeste 19 Este 0 -- -- 31
2019-06-16 19:00:00 27.8 5 Este 23 Sur 0 -- -- 30
2019-06-16 18:00:00 28 10 Sur 21 Sudeste 0 -- -- 28
2019-06-16 17:00:00 28.2 6 Este 22 Este 0 -- -- 29
2019-06-16 16:00:00 28 9 Sudeste 22 Este 0 -- -- 29
2019-06-16 15:00:00 27.1 11 Sudeste 24 Este 0 -- -- 31
2019-06-16 14:00:00 25.4 12 Sudeste 25 Sudeste 0 -- -- 35
2019-06-16 13:00:00 24 13 Sur 24 Sur 0 -- -- 37
2019-06-16 12:00:00 20 6 Sur 14 Sur 0 -- -- 52
2019-06-16 11:00:00 17.1 5 Sur 12 Sur 0 -- -- 59
2019-06-16 10:00:00 15.2 3 Sudeste 9 Sur 0 -- -- 63
2019-06-16 09:00:00 12.1 3 Sur 4 Sudeste 0 -- -- 77
2019-06-16 08:00:00 8.5 0 Calma 3 Nordeste 0 -- -- 87
2019-06-16 07:00:00 7.5 0 Calma 4 Nordeste 0 -- -- 87
2019-06-16 06:00:00 7.9 2 Nordeste 4 Nordeste 0 -- -- 86
2019-06-16 05:00:00 8.7 2 Nordeste 5 Nordeste 0 -- -- 84
2019-06-16 04:00:00 9.2 3 Norte 6 Noroeste 0 -- -- 81
2019-06-16 03:00:00 9.9 0 Calma 7 Nordeste 0 -- -- 78
2019-06-16 02:00:00 11.8 3 Nordeste 8 Este 0 -- -- 72
2019-06-16 01:00:00 12.2 3 Nordeste 8 Este 0 -- -- 71
2019-06-16 00:00:00 13.6 2 Nordeste 20 Nordeste 0 -- -- 66
2019-06-15 23:00:00 14.1 5 Nordeste 31 Norte 0 -- -- 62
2019-06-15 22:00:00 14.6 15 Nordeste 37 Nordeste 0 -- -- 63
2019-06-15 21:00:00 16 17 Nordeste 41 Norte 0 -- -- 61
2019-06-15 20:00:00 18.9 14 Nordeste 31 Norte 0 -- -- 53
2019-06-15 19:00:00 21 12 Nordeste 26 Nordeste 0 -- -- 45
2019-06-15 18:00:00 21.8 9 Nordeste 23 Norte 0 -- -- 42
2019-06-15 17:00:00 22.7 8 Norte 24 Norte 0 -- -- 37
2019-06-15 16:00:00 22.4 7 Norte 25 Norte 0 -- -- 37
2019-06-15 15:00:00 21.7 8 Noroeste 20 Norte 0 -- -- 36
2019-06-15 14:00:00 20.6 7 Noroeste 18 Norte 0 -- -- 39
2019-06-15 13:00:00 17.6 5 Norte 11 Sudoeste 0 -- -- 50
2019-06-15 12:00:00 16.8 6 Noroeste 15 Oeste 0 -- -- 53
2019-06-15 11:00:00 16.2 8 Oeste 16 Noroeste 0 -- -- 55
2019-06-15 10:00:00 15.1 7 Noroeste 17 Noroeste 0 -- -- 58
2019-06-15 09:00:00 13.8 3 Norte 9 Noroeste 0 -- -- 63
2019-06-15 08:00:00 11.4 0 Calma 4 Nordeste 0 -- -- 74
2019-06-15 07:00:00 9.9 0 Calma 6 Noroeste 0 -- -- 82
2019-06-15 06:00:00 9.7 3 Oeste 11 Oeste 0 -- -- 83
2019-06-15 05:00:00 10.7 6 Noroeste 17 Noroeste 0 -- -- 76
2019-06-15 04:00:00 10.2 3 Norte 13 Oeste 0 -- -- 80
2019-06-15 03:00:00 11.7 5 Norte 28 Norte 0 -- -- 73
2019-06-15 02:00:00 11.8 13 Norte 34 Norte 0 -- -- 76
2019-06-15 01:00:00 12.1 14 Nordeste 30 Norte 0 -- -- 80
2019-06-15 00:00:00 12.2 10 Norte 33 Norte 0 -- -- 80
2019-06-14 23:00:00 12.6 14 Norte 38 Norte 0 -- -- 79
2019-06-14 22:00:00 13.5 14 Nordeste 40 Norte 0 -- -- 76
2019-06-14 21:00:00 14.3 15 Nordeste 39 Nordeste 0 -- -- 73
2019-06-14 20:00:00 15.9 18 Nordeste 37 Norte 0 -- -- 69
2019-06-14 19:00:00 19.4 14 Nordeste 32 Norte 0 -- -- 58
2019-06-14 18:00:00 22.4 13 Nordeste 39 Norte 0 -- -- 51
2019-06-14 17:00:00 24.3 10 Nordeste 34 Norte 0 -- -- 46
2019-06-14 16:00:00 24.6 9 Nordeste 27 Este 0 -- -- 43
2019-06-14 15:00:00 24.2 8 Sudeste 24 Este 0 -- -- 43
2019-06-14 14:00:00 22.2 7 Sudoeste 22 Sudoeste 0 -- -- 48
2019-06-14 13:00:00 19.9 9 Sur 20 Sur 0 -- -- 57
2019-06-14 12:00:00 18.1 5 Oeste 19 Sudoeste 0 -- -- 60
2019-06-14 11:00:00 16.3 6 Sur 21 Este 0 -- -- 63
2019-06-14 10:00:00 14.4 5 Oeste 12 Oeste 0 -- -- 71
2019-06-14 09:00:00 13.1 3 Sudoeste 6 Sudoeste 0 -- -- 77
2019-06-14 08:00:00 10.5 3 Nordeste 7 Nordeste 0 -- -- 88
2019-06-14 07:00:00 9.1 2 Nordeste 5 Norte 0 -- -- 90
2019-06-14 06:00:00 8.9 2 Nordeste 8 Noroeste 0 -- -- 90
2019-06-14 05:00:00 9.7 3 Nordeste 6 Norte 0 -- -- 89
2019-06-14 04:00:00 10.5 3 Norte 5 Noroeste 0 -- -- 87
2019-06-14 03:00:00 11.3 2 Noroeste 5 Noroeste 0 -- -- 84
2019-06-14 02:00:00 11.4 3 Oeste 12 Este 0 -- -- 85
2019-06-14 01:00:00 11.7 7 Noroeste 19 Nordeste 0 -- -- 82
2019-06-14 00:00:00 12.1 9 Norte 30 Norte 0 -- -- 80
2019-06-13 23:00:00 12.5 15 Nordeste 46 Norte 0 -- -- 77
2019-06-13 22:00:00 13 21 Nordeste 49 Norte 0 -- -- 75
2019-06-13 21:00:00 13.6 26 Norte 53 Nordeste 0 -- -- 75
2019-06-13 20:00:00 19.6 9 Norte 33 Nordeste 0 -- -- 56
2019-06-13 19:00:00 24.1 11 Nordeste 27 Este 0 -- -- 45
2019-06-13 18:00:00 26.6 11 Sudeste 28 Este 0 -- -- 33
2019-06-13 17:00:00 26.4 15 Sudeste 38 Sudeste 0 -- -- 37
2019-06-13 16:00:00 25.3 16 Sudeste 35 Este 0 -- -- 39
2019-06-13 15:00:00 24.3 18 Sudeste 37 Este 0 -- -- 43
2019-06-13 14:00:00 23.3 14 Sudeste 33 Este 0 -- -- 43
2019-06-13 13:00:00 21.5 16 Este 31 Sudeste 0 -- -- 46
2019-06-13 12:00:00 19.7 13 Sudeste 26 Sudeste 0 -- -- 50
2019-06-13 11:00:00 17 13 Sudeste 28 Sur 0 -- -- 55
2019-06-13 10:00:00 14.5 15 Sudeste 32 Sudeste 0 -- -- 60
2019-06-13 09:00:00 10.9 4 Sur 9 Sur 0 -- -- 76
2019-06-13 08:00:00 8.1 3 Nordeste 8 Norte 0 -- -- 87
2019-06-13 07:00:00 6.8 2 Nordeste 6 Nordeste 0 -- -- 88
2019-06-13 06:00:00 6.6 2 Nordeste 6 Norte 0 -- -- 89
2019-06-13 05:00:00 7 0 Calma 8 Noroeste 0 -- -- 85
2019-06-13 04:00:00 8.4 2 Norte 5 Norte 0 -- -- 82
2019-06-13 03:00:00 8.4 2 Nordeste 8 Noroeste 0 -- -- 83
2019-06-13 02:00:00 10.1 6 Noroeste 14 Noroeste 0 -- -- 78
2019-06-13 01:00:00 11.6 5 Nordeste 21 Nordeste 0 -- -- 71
2019-06-13 00:00:00 11.6 9 Nordeste 31 Nordeste 0 -- -- 72
2019-06-12 23:00:00 11.7 13 Nordeste 43 Este 0 -- -- 71
2019-06-12 22:00:00 12.3 19 Nordeste 44 Nordeste 0 -- -- 67
2019-06-12 21:00:00 13.6 19 Nordeste 41 Norte 0 -- -- 64
2019-06-12 20:00:00 16.9 15 Nordeste 36 Nordeste 0 -- -- 52
2019-06-12 19:00:00 19.8 10 Nordeste 35 Este 0 -- -- 42
2019-06-12 18:00:00 21.3 5 Nordeste 19 Sur 0 -- -- 28
2019-06-12 17:00:00 20.8 7 Oeste 21 Oeste 0 -- -- 29
2019-06-12 16:00:00 19.9 8 Oeste 25 Oeste 0 -- -- 32
2019-06-12 15:00:00 18.9 6 Sudoeste 19 Sudoeste 0 -- -- 35
2019-06-12 14:00:00 18.1 6 Sudoeste 21 Sur 0 -- -- 38
2019-06-12 13:00:00 16.5 13 Sur 19 Sur 0 -- -- 44
2019-06-12 12:00:00 14.9 8 Sur 17 Sur 0 -- -- 49
2019-06-12 11:00:00 13.2 5 Oeste 19 Sudoeste 0 -- -- 54
2019-06-12 10:00:00 11.4 5 Sudoeste 10 Oeste 0 -- -- 62
2019-06-12 09:00:00 9.4 5 Oeste 9 Oeste 0 -- -- 71
2019-06-12 08:00:00 5.8 0 Calma 6 Nordeste 0 -- -- 87
2019-06-12 07:00:00 4.7 0 Calma 5 Nordeste 0 -- -- 88
2019-06-12 06:00:00 6.4 2 Norte 8 Sur 0 -- -- 86
2019-06-12 05:00:00 6.7 3 Oeste 7 Sur 0 -- -- 86
2019-06-12 04:00:00 6.3 3 Norte 5 Nordeste 0 -- -- 84
2019-06-12 03:00:00 7.2 3 Nordeste 10 Norte 0 -- -- 81
2019-06-12 02:00:00 6.6 4 Norte 9 Nordeste 0 -- -- 83
2019-06-12 01:00:00 7.4 6 Norte 8 Norte 0 -- -- 82
2019-06-12 00:00:00 8.2 4 Noroeste 9 Norte 0 -- -- 80
2019-06-11 23:00:00 8.9 4 Nordeste 11 Norte 0 -- -- 76
2019-06-11 22:00:00 10 7 Norte 17 Norte 0 -- -- 71
2019-06-11 21:00:00 11.7 6 Norte 22 Norte 0 -- -- 65
2019-06-11 20:00:00 12.8 6 Norte 24 Norte 0 -- -- 65
2019-06-11 19:00:00 12.9 6 Noroeste 23 Norte 0.2 -- -- 67
2019-06-11 18:00:00 12.3 7 Noroeste 19 Nordeste 0.6 -- -- 75
2019-06-11 17:00:00 11.8 8 Noroeste 29 Noroeste 0 -- -- 60
2019-06-11 16:00:00 14.1 11 Norte 29 Sudoeste 0 -- -- 58
2019-06-11 15:00:00 12.8 9 Oeste 21 Oeste 0.4 -- -- 66
2019-06-11 14:00:00 13.3 9 Norte 32 Noroeste 0.2 -- -- 61
2019-06-11 13:00:00 13.2 10 Norte 31 Norte 0 -- -- 56
2019-06-11 12:00:00 11.7 8 Noroeste 26 Norte 0 -- -- 64
2019-06-11 11:00:00 12.4 9 Noroeste 25 Noroeste 0 -- -- 65
2019-06-11 10:00:00 10.2 10 Norte 22 Norte 0 -- -- 78
2019-06-11 09:00:00 9.9 6 Noroeste 15 Oeste 0 -- -- 80
2019-06-11 08:00:00 8.6 3 Noroeste 7 Norte 0 -- -- 90
2019-06-11 07:00:00 8 3 Norte 8 Norte 0 -- -- 92
2019-06-11 06:00:00 8 3 Noroeste 6 Noroeste 0 -- -- 92
2019-06-11 05:00:00 8.2 0 Calma 5 Norte 0.2 -- -- 92
2019-06-11 04:00:00 8.1 3 Noroeste 6 Noroeste 0.2 -- -- 92
2019-06-11 03:00:00 8.1 0 Calma 9 Sudoeste 0.6 -- -- 92
2019-06-11 02:00:00 8.1 7 Sudoeste 24 Norte 1 -- -- 88
2019-06-11 01:00:00 9.2 11 Norte 28 Norte 0.2 -- -- 75
2019-06-11 00:00:00 10.1 5 Nordeste 33 Nordeste 0 -- -- 69
2019-06-10 23:00:00 10.1 16 Norte 41 Nordeste 0 -- -- 69
2019-06-10 22:00:00 10.6 20 Nordeste 44 Nordeste 0 -- -- 71
2019-06-10 21:00:00 11.7 21 Norte 39 Nordeste 0 -- -- 65
2019-06-10 20:00:00 12.1 17 Norte 34 Norte 0 -- -- 67
2019-06-10 19:00:00 15.5 11 Nordeste 25 Norte 0 -- -- 54
2019-06-10 18:00:00 16.1 12 Norte 24 Norte 0 -- -- 50
2019-06-10 17:00:00 16.9 8 Norte 24 Nordeste 0 -- -- 45
2019-06-10 16:00:00 16.8 9 Noroeste 23 Norte 0 -- -- 48
2019-06-10 15:00:00 15.7 8 Noroeste 27 Noroeste 0 -- -- 53
2019-06-10 14:00:00 16.2 8 Noroeste 22 Oeste 0 -- -- 52
2019-06-10 13:00:00 14.2 8 Noroeste 23 Oeste 0 -- -- 58
2019-06-10 12:00:00 11.5 7 Oeste 17 Oeste 0 -- -- 75
2019-06-10 11:00:00 10.5 8 Oeste 17 Noroeste 0 -- -- 80
2019-06-10 10:00:00 10.4 3 Este 8 Oeste 0 -- -- 76
2019-06-10 09:00:00 9.7 2 Sur 14 Este 0 -- -- 78
2019-06-10 08:00:00 9.4 5 Nordeste 11 Norte 0 -- -- 79
2019-06-10 07:00:00 9.5 6 Sudoeste 13 Oeste 0 -- -- 82
2019-06-10 06:00:00 9.6 5 Oeste 23 Noroeste 0 -- -- 80
2019-06-10 05:00:00 9.9 5 Oeste 19 Oeste 0 -- -- 82
2019-06-10 04:00:00 10.3 5 Sudoeste 16 Noroeste 0 -- -- 82
2019-06-10 03:00:00 10.5 9 Noroeste 29 Oeste 0 -- -- 84
2019-06-10 02:00:00 11 7 Nordeste 26 Sur 0 -- -- 82
2019-06-10 01:00:00 11.7 9 Nordeste 29 Norte 0 -- -- 76
2019-06-10 00:00:00 11.5 14 Nordeste 49 Norte 0 -- -- 79
2019-06-09 23:00:00 11.5 23 Norte 47 Nordeste 0 -- -- 80
2019-06-09 22:00:00 12 22 Norte 51 Norte 0 -- -- 76
2019-06-09 21:00:00 12.4 21 Nordeste 50 Norte 0 -- -- 80
2019-06-09 20:00:00 14 21 Nordeste 51 Nordeste 0 -- -- 73
2019-06-09 19:00:00 15.3 27 Nordeste 57 Nordeste 0 -- -- 69
2019-06-09 18:00:00 16.7 26 Nordeste 50 Nordeste 0 -- -- 66
2019-06-09 17:00:00 19.4 22 Nordeste 42 Nordeste 0 -- -- 57
2019-06-09 16:00:00 22.3 14 Nordeste 30 Nordeste 0 -- -- 51
2019-06-09 15:00:00 22.6 10 Norte 22 Norte 0 -- -- 46
2019-06-09 14:00:00 22.1 9 Noroeste 21 Oeste 0 -- -- 48
2019-06-09 13:00:00 20.3 8 Oeste 18 Noroeste 0 -- -- 54
2019-06-09 12:00:00 18.4 5 Noroeste 13 Sudeste 0 -- -- 59
2019-06-09 11:00:00 16.7 6 Sudeste 13 Sur 0 -- -- 63
2019-06-09 10:00:00 14.9 6 Sur 15 Sur 0 -- -- 67
2019-06-09 09:00:00 13.4 2 Sur 5 Sur 0 -- -- 74
2019-06-09 08:00:00 10.6 0 Calma 5 Oeste 0 -- -- 85
2019-06-09 07:00:00 9 0 Calma 5 Noroeste 0 -- -- 89
2019-06-09 06:00:00 10.3 7 Noroeste 12 Norte 0 -- -- 86
2019-06-09 05:00:00 11.3 4 Noroeste 20 Nordeste 0 -- -- 80
2019-06-09 04:00:00 11.1 4 Nordeste 13 Este 0 -- -- 81
2019-06-09 03:00:00 13 4 Oeste 20 Este 0 -- -- 74
2019-06-09 02:00:00 13.8 6 Este 24 Este 0 -- -- 70
2019-06-09 01:00:00 14.6 9 Este 24 Este 0 -- -- 69
2019-06-09 00:00:00 15.3 8 Este 33 Este 0 -- -- 67
2019-06-08 23:00:00 16.7 6 Este 36 Este 0 -- -- 61
2019-06-08 22:00:00 17.4 16 Nordeste 38 Nordeste 0 -- -- 58
2019-06-08 21:00:00 17.6 14 Nordeste 36 Norte 0 -- -- 57
2019-06-08 20:00:00 19.7 12 Nordeste 26 Norte 0 -- -- 49
2019-06-08 19:00:00 23.1 6 Nordeste 22 Sudeste 0 -- -- 38
2019-06-08 18:00:00 23.1 11 Sudeste 30 Este 0 -- -- 34
2019-06-08 17:00:00 23.6 13 Sudeste 29 Este 0 -- -- 33
2019-06-08 16:00:00 23.4 14 Sudeste 30 Sur 0 -- -- 35
2019-06-08 15:00:00 22.5 13 Sudeste 31 Sudeste 0 -- -- 33
2019-06-08 14:00:00 21.4 12 Sudeste 24 Sur 0 -- -- 38
2019-06-08 13:00:00 19 5 Sur 14 Sur 0 -- -- 49
2019-06-08 12:00:00 16.1 3 Sudoeste 12 Sur 0 -- -- 56
2019-06-08 11:00:00 14.2 4 Sur 13 Sur 0 -- -- 60
2019-06-08 10:00:00 12.7 3 Sur 8 Sur 0 -- -- 66
2019-06-08 09:00:00 10.8 3 Sudeste 8 Sudeste 0 -- -- 73
2019-06-08 08:00:00 7.1 0 Calma 5 Noroeste 0 -- -- 84
2019-06-08 07:00:00 6.1 3 Noroeste 6 Noroeste 0 -- -- 84
2019-06-08 06:00:00 6.5 0 Calma 12 Este 0 -- -- 83
2019-06-08 05:00:00 6.6 0 Calma 8 Norte 0 -- -- 81
2019-06-08 04:00:00 7.5 3 Norte 8 Norte 0 -- -- 77
2019-06-08 03:00:00 8.5 4 Sudoeste 14 Nordeste 0 -- -- 74
2019-06-08 02:00:00 9.2 3 Este 18 Este 0 -- -- 70
2019-06-08 01:00:00 10.1 8 Nordeste 27 Nordeste 0 -- -- 67
2019-06-08 00:00:00 10.8 7 Nordeste 30 Norte 0 -- -- 66
2019-06-07 23:00:00 11.5 8 Norte 30 Norte 0 -- -- 62
2019-06-07 22:00:00 11.9 11 Nordeste 39 Nordeste 0 -- -- 63
2019-06-07 21:00:00 13.4 13 Nordeste 35 Nordeste 0 -- -- 60
2019-06-07 20:00:00 15.4 13 Nordeste 32 Nordeste 0 -- -- 54
2019-06-07 19:00:00 18.9 7 Norte 31 Sur 0 -- -- 35
2019-06-07 18:00:00 19 11 Sur 28 Sur 0 -- -- 30
2019-06-07 17:00:00 18.7 10 Sudoeste 28 Sur 0 -- -- 32
2019-06-07 16:00:00 18.5 9 Sudoeste 24 Noroeste 0 -- -- 34
2019-06-07 15:00:00 17.7 10 Noroeste 28 Norte 0 -- -- 40
2019-06-07 14:00:00 15.2 7 Oeste 23 Norte 0 -- -- 45
2019-06-07 13:00:00 14.8 8 Nordeste 28 Oeste 0 -- -- 46
2019-06-07 12:00:00 12.9 10 Noroeste 35 Oeste 0 -- -- 55
2019-06-07 11:00:00 12.3 8 Sudeste 26 Sur 0 -- -- 58
2019-06-07 10:00:00 11.2 11 Sur 27 Sur 0 -- -- 61
2019-06-07 09:00:00 10.8 6 Norte 23 Noroeste 0 -- -- 67
2019-06-07 08:00:00 9.3 9 Norte 26 Noroeste 0 -- -- 73
2019-06-07 07:00:00 9.2 6 Noroeste 19 Noroeste 0 -- -- 73
2019-06-07 06:00:00 8.9 5 Noroeste 24 Noroeste 0 -- -- 73
2019-06-07 05:00:00 8.9 4 Norte 14 Oeste 0 -- -- 75
2019-06-07 04:00:00 8.9 5 Noroeste 21 Noroeste 0.2 -- -- 77
2019-06-07 03:00:00 9.3 8 Norte 28 Norte 0.2 -- -- 79
2019-06-07 02:00:00 10.3 10 Noroeste 31 Oeste 0.4 -- -- 83
2019-06-07 01:00:00 14.9 10 Norte 26 Norte 0 -- -- 67
2019-06-07 00:00:00 16.6 9 Norte 22 Oeste 0 -- -- 54
2019-06-06 23:00:00 17.2 12 Noroeste 31 Noroeste 0 -- -- 53
2019-06-06 22:00:00 18.6 3 Nordeste 15 Sur 0 -- -- 40
2019-06-06 21:00:00 20.6 9 Sur 29 Sur 0 -- -- 32
2019-06-06 20:00:00 22.3 15 Sur 32 Sudeste 0 -- -- 30
2019-06-06 19:00:00 22.7 19 Sur 40 Sur 0 -- -- 29
2019-06-06 18:00:00 23.2 21 Sur 33 Sur 0 -- -- 30
2019-06-06 17:00:00 23.9 12 Sur 25 Este 0 -- -- 33
2019-06-06 16:00:00 21.8 15 Este 35 Sudeste 0 -- -- 43
2019-06-06 15:00:00 20.4 16 Sudeste 31 Sudeste 0 -- -- 49
2019-06-06 14:00:00 18.6 14 Sudeste 32 Este 0 -- -- 53
2019-06-06 13:00:00 17.9 13 Sudeste 27 Sudeste 0 -- -- 57
2019-06-06 12:00:00 16.5 12 Sudeste 22 Sur 0 -- -- 57
2019-06-06 11:00:00 14.7 8 Sudeste 16 Sur 0 -- -- 57
2019-06-06 10:00:00 12 8 Sur 14 Sur 0 -- -- 79
2019-06-06 09:00:00 10.6 5 Sudeste 8 Sur 0 -- -- 82
2019-06-06 08:00:00 8.2 0 Calma 4 Nordeste 0 -- -- 89
2019-06-06 07:00:00 7.7 2 Nordeste 5 Nordeste 0 -- -- 87
2019-06-06 06:00:00 8.4 0 Calma 5 Norte 0 -- -- 85
2019-06-06 05:00:00 8.9 0 Calma 4 Norte 0 -- -- 85
2019-06-06 04:00:00 9.9 0 Calma 6 Nordeste 0 -- -- 79
2019-06-06 03:00:00 9.9 3 Nordeste 10 Este 0 -- -- 66
2019-06-06 02:00:00 9.8 4 Oeste 10 Este 0 -- -- 73
2019-06-06 01:00:00 10.1 4 Noroeste 20 Norte 0 -- -- 74
2019-06-06 00:00:00 10.3 9 Nordeste 27 Norte 0 -- -- 68
2019-06-05 23:00:00 10.2 13 Nordeste 31 Nordeste 0 -- -- 74
2019-06-05 22:00:00 10.6 11 Nordeste 32 Norte 0 -- -- 74
2019-06-05 21:00:00 10.9 12 Nordeste 36 Norte 0 -- -- 77
2019-06-05 20:00:00 12 16 Norte 34 Norte 0 -- -- 70
2019-06-05 19:00:00 13.6 12 Nordeste 26 Nordeste 0 -- -- 68
2019-06-05 18:00:00 14.3 10 Nordeste 23 Norte 0 -- -- 64
2019-06-05 17:00:00 13.4 13 Norte 23 Norte 0 -- -- 73
2019-06-05 16:00:00 13.8 3 Nordeste 27 Sur 1 -- -- 76
2019-06-05 15:00:00 12.7 9 Sudoeste 21 Sur 0 -- -- 71
2019-06-05 14:00:00 14.3 13 Norte 23 Norte 0 -- -- 68
2019-06-05 13:00:00 12.1 5 Noroeste 17 Oeste 0 -- -- 77
2019-06-05 12:00:00 10.5 7 Norte 15 Noroeste 0 -- -- 83
2019-06-05 11:00:00 9.9 4 Noroeste 17 Oeste 0.4 -- -- 85
2019-06-05 10:00:00 9.2 8 Oeste 30 Norte 0.2 -- -- 85
2019-06-05 09:00:00 9 10 Norte 35 Oeste 3 -- -- 86
2019-06-05 08:00:00 9 9 Norte 28 Norte 3.2 -- -- 88
2019-06-05 07:00:00 9.4 13 Norte 38 Norte 1.6 -- -- 87
2019-06-05 06:00:00 9.8 13 Norte 29 Norte 1.4 -- -- 89
2019-06-05 05:00:00 10.4 11 Nordeste 32 Norte 0 -- -- 84
2019-06-05 04:00:00 11 11 Norte 35 Nordeste 0 -- -- 79
2019-06-05 03:00:00 11.1 15 Nordeste 33 Norte 0 -- -- 77
2019-06-05 02:00:00 11.7 17 Nordeste 36 Nordeste 0 -- -- 71
2019-06-05 01:00:00 11.6 14 Nordeste 45 Nordeste 0 -- -- 80
2019-06-05 00:00:00 12.2 16 Norte 41 Norte 0 -- -- 76
2019-06-04 23:00:00 12 18 Nordeste 46 Norte 0 -- -- 72
2019-06-04 22:00:00 12.6 22 Nordeste 55 Nordeste 0 -- -- 70
2019-06-04 21:00:00 12.9 27 Nordeste 64 Norte 0 -- -- 74
2019-06-04 20:00:00 14.1 33 Nordeste 57 Nordeste 0 -- -- 75
2019-06-04 19:00:00 19.9 26 Nordeste 57 Nordeste 0 -- -- 58
2019-06-04 18:00:00 24.4 16 Nordeste 33 Norte 0 -- -- 50
2019-06-04 17:00:00 26.4 6 Noroeste 24 Norte 0 -- -- 35
2019-06-04 16:00:00 27.6 9 Oeste 24 Noroeste 0 -- -- 33
2019-06-04 15:00:00 27.5 6 Norte 25 Sudoeste 0 -- -- 29
2019-06-04 14:00:00 27.5 7 Noroeste 22 Oeste 0 -- -- 30
2019-06-04 13:00:00 25 5 Noroeste 17 Sudoeste 0 -- -- 43
2019-06-04 12:00:00 22.3 8 Sudoeste 13 Oeste 0 -- -- 54
2019-06-04 11:00:00 21.1 4 Sur 12 Sudeste 0 -- -- 54
2019-06-04 10:00:00 18.4 7 Sur 11 Sudeste 0 -- -- 59
2019-06-04 09:00:00 15.8 5 Sur 8 Sur 0 -- -- 68
2019-06-04 08:00:00 14.1 3 Norte 9 Oeste 0 -- -- 77
2019-06-04 07:00:00 13.3 5 Norte 12 Oeste 0 -- -- 79
2019-06-04 06:00:00 14.2 3 Nordeste 9 Este 0 -- -- 76
2019-06-04 05:00:00 13.5 4 Norte 12 Noroeste 0 -- -- 87
2019-06-04 04:00:00 15.2 2 Nordeste 6 Este 0 -- -- 82
2019-06-04 03:00:00 15.2 2 Nordeste 5 Norte 0 -- -- 80
2019-06-04 02:00:00 16.5 2 Nordeste 6 Nordeste 0 -- -- 73
2019-06-04 01:00:00 18.4 2 Nordeste 8 Nordeste 0 -- -- 64
2019-06-04 00:00:00 19.7 3 Nordeste 13 Noroeste 0 -- -- 60
2019-06-03 23:00:00 23.5 3 Norte 13 Este 0 -- -- 46
2019-06-03 22:00:00 23.5 4 Noroeste 12 Este 0 -- -- 45
2019-06-03 21:00:00 25.7 2 Este 14 Este 0 -- -- 42
2019-06-03 20:00:00 28.9 7 Este 19 Este 0 -- -- 31
2019-06-03 19:00:00 29.8 9 Sudeste 19 Sudeste 0 -- -- 29
2019-06-03 18:00:00 30.4 8 Sudeste 21 Sur 0 -- -- 30
2019-06-03 17:00:00 29.9 7 Sudoeste 25 Sur 0 -- -- 29
2019-06-03 16:00:00 29.1 10 Sur 17 Sur 0 -- -- 30
2019-06-03 15:00:00 28.1 6 Sudoeste 18 Sudoeste 0 -- -- 32
2019-06-03 14:00:00 27.3 6 Sudoeste 14 Sur 0 -- -- 36
2019-06-03 13:00:00 25 6 Sudeste 20 Sur 0 -- -- 42
2019-06-03 12:00:00 22.5 6 Sur 13 Sudeste 0 -- -- 52
2019-06-03 11:00:00 21.7 3 Sudeste 10 Sudeste 0 -- -- 51
2019-06-03 10:00:00 18.8 3 Sur 8 Oeste 0 -- -- 62
2019-06-03 09:00:00 15.6 0 Calma 8 Oeste 0 -- -- 70
2019-06-03 08:00:00 14.2 0 Calma 5 Sur 0 -- -- 76
2019-06-03 07:00:00 14.4 0 Calma 4 Este 0 -- -- 79
2019-06-03 06:00:00 15.4 0 Calma 9 Oeste 0 -- -- 76
2019-06-03 05:00:00 14.5 0 Calma 5 Noroeste 0 -- -- 76
2019-06-03 04:00:00 15.1 0 Calma 7 Noroeste 0 -- -- 75
2019-06-03 03:00:00 16.6 0 Calma 6 Noroeste 0 -- -- 71
2019-06-03 02:00:00 17.4 2 Noroeste 7 Noroeste 0 -- -- 68
2019-06-03 01:00:00 18.7 2 Nordeste 6 Nordeste 0 -- -- 63
2019-06-03 00:00:00 19.3 2 Nordeste 6 Nordeste 0 -- -- 61
2019-06-02 23:00:00 19.6 3 Nordeste 8 Norte 0 -- -- 61
2019-06-02 22:00:00 22 4 Noroeste 10 Oeste 0 -- -- 52
2019-06-02 21:00:00 25.8 3 Oeste 10 Sudoeste 0 -- -- 49
2019-06-02 20:00:00 27.5 2 Noroeste 13 Norte 0 -- -- 45
2019-06-02 19:00:00 29.2 6 Nordeste 17 Este 0 -- -- 41
2019-06-02 18:00:00 30.4 5 Sudoeste 15 Sudoeste 0 -- -- 35
2019-06-02 17:00:00 31.6 8 Sur 23 Sur 0 -- -- 32
2019-06-02 16:00:00 31.2 6 Sudeste 19 Sur 0 -- -- 34
2019-06-02 15:00:00 29.3 5 Sudeste 19 Sudeste 0 -- -- 34
2019-06-02 14:00:00 27.9 9 Sudeste 25 Sur 0 -- -- 39
2019-06-02 13:00:00 26.2 9 Sudeste 23 Sur 0 -- -- 40
2019-06-02 12:00:00 23.9 12 Sur 24 Sudeste 0 -- -- 45
2019-06-02 11:00:00 22.5 13 Sur 22 Sudeste 0 -- -- 45
2019-06-02 10:00:00 21.1 6 Sudoeste 20 Sur 0 -- -- 49
2019-06-02 09:00:00 17.7 6 Oeste 10 Oeste 0 -- -- 60
2019-06-02 08:00:00 16 5 Noroeste 9 Oeste 0 -- -- 63
2019-06-02 07:00:00 15.8 5 Norte 11 Norte 0 -- -- 61
2019-06-02 06:00:00 16.4 6 Norte 9 Norte 0 -- -- 57
2019-06-02 05:00:00 17.7 7 Oeste 22 Noroeste 0 -- -- 55
2019-06-02 04:00:00 18.4 11 Noroeste 19 Oeste 0 -- -- 51
2019-06-02 03:00:00 17.5 3 Nordeste 5 Nordeste 0 -- -- 52
2019-06-02 02:00:00 19.4 2 Nordeste 10 Oeste 0 -- -- 43
2019-06-02 01:00:00 21.1 2 Nordeste 14 Este 0 -- -- 41
2019-06-02 00:00:00 22.7 3 Nordeste 14 Este 0 -- -- 39
2019-06-01 23:00:00 23.6 4 Este 17 Este 0 -- -- 36
2019-06-01 22:00:00 24.3 4 Nordeste 12 Nordeste 0 -- -- 36
2019-06-01 21:00:00 26 4 Nordeste 18 Sudeste 0 -- -- 36
2019-06-01 20:00:00 29.7 7 Sudeste 20 Sudeste 0 -- -- 31
2019-06-01 19:00:00 30.3 9 Sudeste 21 Sudeste 0 -- -- 30
2019-06-01 18:00:00 30.3 11 Sudeste 24 Sudeste 0 -- -- 32
2019-06-01 17:00:00 29.9 14 Sur 24 Sur 0 -- -- 34
2019-06-01 16:00:00 29.9 10 Sudeste 21 Sudeste 0 -- -- 34
2019-06-01 15:00:00 28.9 10 Sudeste 21 Sudeste 0 -- -- 37
2019-06-01 14:00:00 27.5 11 Sudeste 23 Sur 0 -- -- 39
2019-06-01 13:00:00 25.6 11 Sudeste 23 Sudeste 0 -- -- 43
2019-06-01 12:00:00 24.1 11 Sudeste 24 Este 0 -- -- 47
2019-06-01 11:00:00 21.6 4 Sur 11 Sur 0 -- -- 53
2019-06-01 10:00:00 18.5 4 Sur 8 Sur 0 -- -- 63
2019-06-01 09:00:00 16.5 3 Sur 6 Nordeste 0 -- -- 67
2019-06-01 08:00:00 12.9 0 Calma 6 Nordeste 0 -- -- 81
2019-06-01 07:00:00 11.8 2 Nordeste 5 Nordeste 0 -- -- 82
2019-06-01 06:00:00 12.5 3 Nordeste 6 Nordeste 0 -- -- 79
2019-06-01 05:00:00 13.3 2 Nordeste 5 Noroeste 0 -- -- 77
2019-06-01 04:00:00 14.3 3 Nordeste 6 Nordeste 0 -- -- 72
2019-06-01 03:00:00 15 0 Calma 8 Noroeste 0 -- -- 71
2019-06-01 02:00:00 16.9 3 Nordeste 5 Nordeste 0 -- -- 65
2019-06-01 01:00:00 17 3 Nordeste 9 Noroeste 0 -- -- 58
2019-06-01 00:00:00 19.8 4 Noroeste 9 Nordeste 0 -- -- 47
2019-05-31 23:00:00 20.4 3 Nordeste 9 Este 0 -- -- 43
2019-05-31 22:00:00 20.9 3 Nordeste 5 Norte 0 -- -- 61
2019-05-31 21:00:00 23.8 0 Calma 9 Nordeste 0 -- -- 47
2019-05-31 20:00:00 29.5 3 Nordeste 13 Nordeste 0 -- -- 35
2019-05-31 19:00:00 29.9 5 Nordeste 17 Este 0 -- -- 31
2019-05-31 18:00:00 30.5 4 Nordeste 17 Sudeste 0 -- -- 28
2019-05-31 17:00:00 29.7 5 Sur 20 Sur 0 -- -- 31
2019-05-31 16:00:00 29 6 Sudeste 18 Sur 0 -- -- 33
2019-05-31 15:00:00 27.7 10 Sur 19 Sur 0 -- -- 38
2019-05-31 14:00:00 26.8 8 Sur 15 Sudoeste 0 -- -- 40
2019-05-31 13:00:00 24.4 9 Sur 15 Sur 0 -- -- 45
2019-05-31 12:00:00 22.3 9 Sur 13 Sur 0 -- -- 52
2019-05-31 11:00:00 20.1 6 Sur 11 Sudeste 0 -- -- 62
2019-05-31 10:00:00 18.2 4 Sur 7 Sur 0 -- -- 64
2019-05-31 09:00:00 14.3 2 Sur 5 Sur 0 -- -- 80
2019-05-31 08:00:00 11 0 Calma 4 Nordeste 0 -- -- 86
2019-05-31 07:00:00 9.8 0 Calma 5 Norte 0 -- -- 89
2019-05-31 06:00:00 10.5 0 Calma 6 Norte 0 -- -- 85
2019-05-31 05:00:00 10.8 4 Norte 7 Norte 0 -- -- 86
2019-05-31 04:00:00 12.3 0 Calma 6 Norte 0 -- -- 73
2019-05-31 03:00:00 13.5 2 Nordeste 8 Este 0 -- -- 70
2019-05-31 02:00:00 15.7 5 Norte 9 Norte 0 -- -- 62
2019-05-31 01:00:00 15.6 0 Calma 8 Nordeste 0 -- -- 68
2019-05-31 00:00:00 17 0 Calma 12 Sudeste 0 -- -- 61
2019-05-30 23:00:00 18 3 Nordeste 15 Norte 0 -- -- 52
2019-05-30 22:00:00 20.4 9 Nordeste 27 Este 0 -- -- 50
2019-05-30 21:00:00 21.9 8 Nordeste 23 Este 0 -- -- 50
2019-05-30 20:00:00 25.6 4 Nordeste 17 Este 0 -- -- 39
2019-05-30 19:00:00 26.3 6 Norte 22 Este 0 -- -- 36
2019-05-30 18:00:00 27 4 Oeste 21 Sudeste 0 -- -- 34
2019-05-30 17:00:00 26.9 7 Este 20 Este 0 -- -- 31
2019-05-30 16:00:00 26.2 8 Sudeste 23 Sur 0 -- -- 31
2019-05-30 15:00:00 24.2 13 Sur 24 Sur 0 -- -- 46
2019-05-30 14:00:00 22.2 10 Sudoeste 21 Sur 0 -- -- 50
2019-05-30 13:00:00 21.1 8 Sudoeste 17 Sudoeste 0 -- -- 55
2019-05-30 12:00:00 19.3 6 Oeste 15 Oeste 0 -- -- 58
2019-05-30 11:00:00 17.3 5 Oeste 11 Sudoeste 0 -- -- 64
2019-05-30 10:00:00 15.1 4 Oeste 9 Oeste 0 -- -- 71
2019-05-30 09:00:00 10.3 2 Sudoeste 5 Sur 0 -- -- 89
2019-05-30 08:00:00 7.2 3 Sur 6 Oeste 0 -- -- 93
2019-05-30 07:00:00 7.7 0 Calma 6 Norte 0 -- -- 88
2019-05-30 06:00:00 8.2 3 Norte 7 Norte 0 -- -- 88
2019-05-30 05:00:00 7.5 3 Nordeste 6 Nordeste 0 -- -- 90
2019-05-30 04:00:00 7.8 2 Norte 5 Nordeste 0 -- -- 89
2019-05-30 03:00:00 8.4 2 Nordeste 7 Nordeste 0 -- -- 90
2019-05-30 02:00:00 8.4 0 Calma 6 Nordeste 0 -- -- 88
2019-05-30 01:00:00 9.7 3 Nordeste 8 Este 0 -- -- 83
2019-05-30 00:00:00 9.8 3 Nordeste 6 Norte 0 -- -- 84
2019-05-29 23:00:00 10.8 2 Nordeste 9 Noroeste 0 -- -- 79
2019-05-29 22:00:00 13.1 3 Sudeste 20 Norte 0 -- -- 72
2019-05-29 21:00:00 14.4 3 Norte 15 Norte 0 -- -- 66
2019-05-29 20:00:00 16.5 8 Norte 19 Norte 0 -- -- 59
2019-05-29 19:00:00 16.6 8 Noroeste 24 Oeste 0 -- -- 61
2019-05-29 18:00:00 16.8 10 Noroeste 21 Noroeste 0 -- -- 60
2019-05-29 17:00:00 16.6 7 Noroeste 22 Noroeste 0 -- -- 59
2019-05-29 16:00:00 14.6 8 Noroeste 22 Oeste 0 -- -- 66
2019-05-29 15:00:00 15.6 9 Noroeste 20 Noroeste 0 -- -- 61
2019-05-29 14:00:00 13.2 8 Oeste 19 Noroeste 0 -- -- 74
2019-05-29 13:00:00 13.3 7 Norte 25 Norte 0 -- -- 73
2019-05-29 12:00:00 11.9 6 Oeste 23 Oeste 0 -- -- 75
2019-05-29 11:00:00 11.2 6 Noroeste 29 Noroeste 0 -- -- 82
2019-05-29 10:00:00 10.2 7 Noroeste 17 Noroeste 0 -- -- 87
2019-05-29 09:00:00 9.7 4 Noroeste 13 Oeste 0 -- -- 84
2019-05-29 08:00:00 9.8 3 Sudoeste 9 Norte 0 -- -- 79
2019-05-29 07:00:00 9.7 4 Norte 8 Noroeste 0 -- -- 78
2019-05-29 06:00:00 9.6 3 Norte 9 Oeste 0 -- -- 79
2019-05-29 05:00:00 9.5 2 Noroeste 10 Sudoeste 0 -- -- 79
2019-05-29 04:00:00 9.4 3 Noroeste 9 Norte 0 -- -- 80
2019-05-29 03:00:00 9.6 3 Norte 9 Noroeste 0 -- -- 78
2019-05-29 02:00:00 9.8 3 Norte 9 Oeste 0 -- -- 76
2019-05-29 01:00:00 9.9 3 Noroeste 13 Norte 0 -- -- 75
2019-05-29 00:00:00 10 5 Norte 21 Noroeste 0 -- -- 75
2019-05-28 23:00:00 10.1 6 Noroeste 19 Norte 0 -- -- 72
2019-05-28 22:00:00 10.6 9 Norte 26 Nordeste 0 -- -- 70
2019-05-28 21:00:00 11.6 9 Norte 32 Noroeste 0 -- -- 66
2019-05-28 20:00:00 12.7 10 Nordeste 31 Nordeste 0 -- -- 64
2019-05-28 19:00:00 14.1 8 Noroeste 27 Oeste 0 -- -- 60
2019-05-28 18:00:00 13.3 8 Norte 27 Noroeste 0 -- -- 64
2019-05-28 17:00:00 13.7 7 Norte 27 Noroeste 0 -- -- 61
2019-05-28 16:00:00 14.5 11 Norte 31 Noroeste 0 -- -- 63
2019-05-28 15:00:00 12.6 10 Norte 26 Norte 0 -- -- 68
2019-05-28 14:00:00 14 8 Oeste 31 Oeste 0 -- -- 63
2019-05-28 13:00:00 12.5 10 Norte 33 Oeste 0 -- -- 70
2019-05-28 12:00:00 10.7 6 Noroeste 18 Noroeste 0 -- -- 82
2019-05-28 11:00:00 11.1 6 Norte 17 Norte 0 -- -- 69
2019-05-28 10:00:00 11.2 4 Noroeste 16 Noroeste 0 -- -- 68
2019-05-28 09:00:00 10.1 7 Noroeste 19 Norte 0 -- -- 73
2019-05-28 08:00:00 9.7 9 Oeste 25 Noroeste 0 -- -- 75
2019-05-28 07:00:00 9.3 7 Oeste 21 Sudoeste 0 -- -- 75
2019-05-28 06:00:00 9.1 5 Norte 26 Noroeste 0 -- -- 76
2019-05-28 05:00:00 9.5 3 Norte 14 Oeste 0 -- -- 77
2019-05-28 04:00:00 9.5 9 Norte 27 Oeste 0 -- -- 73
2019-05-28 03:00:00 9.7 10 Norte 28 Norte 0 -- -- 73
2019-05-28 02:00:00 10 7 Norte 32 Norte 0 -- -- 73
2019-05-28 01:00:00 10.4 8 Noroeste 35 Noroeste 0 -- -- 72
2019-05-28 00:00:00 11 10 Oeste 42 Norte 0 -- -- 76
2019-05-27 23:00:00 11.3 11 Noroeste 36 Norte 0 -- -- 74
2019-05-27 22:00:00 12.1 14 Nordeste 37 Norte 0 -- -- 73
2019-05-27 21:00:00 13 18 Norte 49 Nordeste 0 -- -- 74
2019-05-27 20:00:00 14.5 17 Norte 41 Nordeste 0 -- -- 74
2019-05-27 19:00:00 17.1 15 Nordeste 37 Nordeste 0 -- -- 63
2019-05-27 18:00:00 18.4 13 Norte 38 Norte 0 -- -- 61
2019-05-27 17:00:00 18.7 13 Norte 28 Nordeste 0 -- -- 64
2019-05-27 16:00:00 18.2 7 Norte 23 Norte 0 -- -- 65
2019-05-27 15:00:00 17.1 12 Noroeste 28 Noroeste 0 -- -- 67
2019-05-27 14:00:00 16.2 9 Norte 30 Noroeste 0 -- -- 69
2019-05-27 13:00:00 14.3 10 Oeste 18 Oeste 0 -- -- 76
2019-05-27 12:00:00 12.9 6 Oeste 14 Oeste 0 -- -- 81
2019-05-27 11:00:00 11.6 5 Noroeste 13 Oeste 0 -- -- 84
2019-05-27 10:00:00 11.2 6 Oeste 13 Oeste 0 -- -- 84
2019-05-27 09:00:00 10.6 4 Noroeste 10 Norte 0 -- -- 87
2019-05-27 08:00:00 10.5 4 Noroeste 14 Norte 0 -- -- 86
2019-05-27 07:00:00 10.6 5 Noroeste 21 Noroeste 0 -- -- 85
2019-05-27 06:00:00 10.8 7 Noroeste 23 Noroeste 0 -- -- 82
2019-05-27 05:00:00 10.8 7 Noroeste 17 Sur 0 -- -- 82
2019-05-27 04:00:00 10.8 7 Noroeste 26 Noroeste 0 -- -- 84
2019-05-27 03:00:00 10.8 7 Noroeste 26 Oeste 0 -- -- 83
2019-05-27 02:00:00 10.9 4 Oeste 15 Norte 0 -- -- 81
2019-05-27 01:00:00 11.7 4 Sudeste 13 Sudeste 0 -- -- 81
2019-05-27 00:00:00 11.8 5 Este 14 Este 0 -- -- 80
2019-05-26 23:00:00 11.9 6 Sur 21 Este 0 -- -- 80
2019-05-26 22:00:00 12.3 6 Este 24 Este 0 -- -- 78
2019-05-26 21:00:00 12.8 9 Norte 31 Norte 0 -- -- 74
2019-05-26 20:00:00 14.5 12 Nordeste 31 Norte 0 -- -- 71
2019-05-26 19:00:00 15 9 Nordeste 28 Norte 0 -- -- 74
2019-05-26 18:00:00 14.2 5 Norte 18 Sudoeste 0 -- -- 77
2019-05-26 17:00:00 14.4 6 Nordeste 19 Norte 0 -- -- 73
2019-05-26 16:00:00 13.4 7 Norte 23 Noroeste 0 -- -- 77
2019-05-26 15:00:00 13.4 9 Norte 21 Noroeste 0 -- -- 77
2019-05-26 14:00:00 13.3 10 Norte 20 Noroeste 0 -- -- 78
2019-05-26 13:00:00 12.7 6 Noroeste 15 Oeste 0 -- -- 85
2019-05-26 12:00:00 10.4 5 Noroeste 14 Noroeste 0.4 -- -- 94
2019-05-26 11:00:00 9.9 4 Este 12 Sur 0 -- -- 93
2019-05-26 10:00:00 9.9 4 Oeste 10 Oeste 0 -- -- 92
2019-05-26 09:00:00 9.6 2 Oeste 9 Oeste 0 -- -- 91
2019-05-26 08:00:00 9.2 4 Oeste 10 Noroeste 0 -- -- 91
2019-05-26 07:00:00 9 5 Oeste 15 Oeste 0 -- -- 91
2019-05-26 06:00:00 9.4 4 Oeste 19 Noroeste 0 -- -- 85
2019-05-26 05:00:00 9.1 6 Noroeste 15 Noroeste 0 -- -- 91
2019-05-26 04:00:00 8.9 3 Oeste 11 Noroeste 0 -- -- 90
2019-05-26 03:00:00 9.4 5 Noroeste 14 Noroeste 0 -- -- 85
2019-05-26 02:00:00 10.1 6 Noroeste 18 Noroeste 0 -- -- 77
2019-05-26 01:00:00 10.3 6 Noroeste 28 Oeste 0 -- -- 77
2019-05-26 00:00:00 10.6 5 Norte 24 Norte 0 -- -- 76
2019-05-25 23:00:00 11.2 9 Nordeste 35 Nordeste 0 -- -- 74
2019-05-25 22:00:00 11.6 10 Norte 26 Norte 0 -- -- 76
2019-05-25 21:00:00 12 7 Norte 26 Norte 0 -- -- 76
2019-05-25 20:00:00 12.6 10 Norte 31 Norte 0 -- -- 75
2019-05-25 19:00:00 12.9 7 Noroeste 24 Noroeste 0 -- -- 75
2019-05-25 18:00:00 12.4 6 Norte 18 Norte 0 -- -- 79
2019-05-25 17:00:00 11.3 6 Norte 21 Norte 0 -- -- 84
2019-05-25 16:00:00 12.5 6 Noroeste 16 Oeste 0 -- -- 79
2019-05-25 15:00:00 12.7 5 Noroeste 31 Oeste 0 -- -- 79
2019-05-25 14:00:00 11.5 10 Noroeste 23 Noroeste 0.2 -- -- 83
2019-05-25 13:00:00 10.7 5 Oeste 23 Oeste 0.2 -- -- 86
2019-05-25 12:00:00 10.9 8 Noroeste 26 Noroeste 0 -- -- 86
2019-05-25 11:00:00 11.1 9 Noroeste 26 Noroeste 0 -- -- 81
2019-05-25 10:00:00 10.9 9 Norte 25 Noroeste 0 -- -- 81
2019-05-25 09:00:00 10.1 8 Norte 24 Norte 0 -- -- 84
2019-05-25 08:00:00 9.8 12 Noroeste 29 Noroeste 0 -- -- 83
2019-05-25 07:00:00 9.6 12 Norte 25 Norte 0 -- -- 82
2019-05-25 06:00:00 9.7 7 Norte 19 Norte 0 -- -- 84
2019-05-25 05:00:00 9.8 6 Norte 28 Norte 0 -- -- 83
2019-05-25 04:00:00 10.2 10 Norte 23 Norte 0 -- -- 87
2019-05-25 03:00:00 10.4 10 Noroeste 27 Norte 0 -- -- 87
2019-05-25 02:00:00 10.4 11 Norte 24 Norte 0.2 -- -- 87
2019-05-25 01:00:00 10.5 8 Norte 37 Nordeste 0.2 -- -- 87
2019-05-25 00:00:00 11 9 Norte 37 Norte 0 -- -- 81
2019-05-24 23:00:00 11.2 8 Norte 27 Norte 0 -- -- 78
2019-05-24 22:00:00 11 7 Norte 25 Oeste 0 -- -- 82
2019-05-24 21:00:00 11.2 4 Noroeste 30 Norte 0 -- -- 82
2019-05-24 20:00:00 11 5 Norte 28 Oeste 0 -- -- 85
2019-05-24 19:00:00 12 10 Noroeste 33 Nordeste 0 -- -- 78
2019-05-24 18:00:00 13.9 18 Norte 40 Norte 0 -- -- 70
2019-05-24 17:00:00 13.9 15 Nordeste 40 Oeste 0 -- -- 72
2019-05-24 16:00:00 13.3 13 Norte 31 Norte 0 -- -- 73
2019-05-24 15:00:00 14.7 10 Norte 33 Norte 0 -- -- 69
2019-05-24 14:00:00 14.8 14 Norte 41 Norte 0 -- -- 69
2019-05-24 13:00:00 13.4 11 Noroeste 37 Noroeste 0 -- -- 73
2019-05-24 12:00:00 12.5 15 Norte 26 Oeste 0 -- -- 76
2019-05-24 11:00:00 11.7 7 Norte 37 Oeste 0 -- -- 81
2019-05-24 10:00:00 11.2 7 Norte 27 Norte 0 -- -- 79
2019-05-24 09:00:00 10.6 14 Norte 38 Norte 0.2 -- -- 81
2019-05-24 08:00:00 10.5 14 Norte 35 Norte 0 -- -- 79
2019-05-24 07:00:00 10.5 13 Norte 33 Norte 0 -- -- 83
2019-05-24 06:00:00 11 10 Norte 39 Norte 0.2 -- -- 83
2019-05-24 05:00:00 11 15 Norte 39 Nordeste 1.8 -- -- 83
2019-05-24 04:00:00 11.1 20 Norte 42 Norte 4 -- -- 85
2019-05-24 03:00:00 11.8 19 Norte 53 Norte 0.2 -- -- 80
2019-05-24 02:00:00 12.1 16 Norte 42 Nordeste 0 -- -- 78
2019-05-24 01:00:00 12.3 17 Norte 43 Norte 0 -- -- 78
2019-05-24 00:00:00 12.3 15 Nordeste 45 Norte 2 -- -- 83
2019-05-23 23:00:00 12.7 16 Nordeste 51 Nordeste 0 -- -- 79
2019-05-23 22:00:00 12.9 27 Nordeste 56 Norte 0 -- -- 81
2019-05-23 21:00:00 13.8 24 Nordeste 55 Norte 0 -- -- 76
2019-05-23 20:00:00 16.2 21 Nordeste 47 Norte 0 -- -- 59
2019-05-23 19:00:00 19.5 14 Nordeste 33 Nordeste 0 -- -- 56
2019-05-23 18:00:00 21.3 9 Nordeste 27 Norte 0 -- -- 53
2019-05-23 17:00:00 22.9 4 Nordeste 16 Este 0 -- -- 52
2019-05-23 16:00:00 21.8 4 Sur 11 Sur 0 -- -- 56
2019-05-23 15:00:00 21.3 6 Sudoeste 19 Sur 0 -- -- 58
2019-05-23 14:00:00 21 4 Sur 16 Sur 0 -- -- 55
2019-05-23 13:00:00 20.9 3 Sudeste 9 Sudeste 0 -- -- 58
2019-05-23 12:00:00 18.9 4 Sur 10 Sur 0 -- -- 63
2019-05-23 11:00:00 18.2 4 Sur 7 Sur 0 -- -- 67
2019-05-23 10:00:00 15.1 2 Sur 5 Sur 0 -- -- 75
2019-05-23 09:00:00 13.3 3 Sudoeste 11 Noroeste 0 -- -- 81
2019-05-23 08:00:00 12.2 0 Calma 4 Oeste 0 -- -- 82
2019-05-23 07:00:00 10.9 3 Norte 8 Norte 0 -- -- 83
2019-05-23 06:00:00 10.7 0 Calma 9 Noroeste 0 -- -- 84
2019-05-23 05:00:00 12 3 Noroeste 11 Oeste 0 -- -- 77
2019-05-23 04:00:00 12 0 Calma 8 Nordeste 0 -- -- 77
2019-05-23 03:00:00 12.7 0 Calma 5 Nordeste 0 -- -- 75
2019-05-23 02:00:00 13.5 0 Calma 7 Norte 0 -- -- 71
2019-05-23 01:00:00 14.7 4 Norte 6 Norte 0 -- -- 64
2019-05-23 00:00:00 16.4 2 Norte 17 Sur 0 -- -- 58
2019-05-22 23:00:00 18.3 3 Nordeste 15 Norte 0 -- -- 52
2019-05-22 22:00:00 19.4 7 Nordeste 19 Norte 0 -- -- 49
2019-05-22 21:00:00 20.6 6 Nordeste 20 Nordeste 0 -- -- 46
2019-05-22 20:00:00 23 8 Nordeste 19 Este 0 -- -- 40
2019-05-22 19:00:00 24.9 5 Nordeste 16 Norte 0 -- -- 37
2019-05-22 18:00:00 24 6 Oeste 21 Noroeste 0 -- -- 35
2019-05-22 17:00:00 24 8 Norte 19 Norte 0 -- -- 35
2019-05-22 16:00:00 23.8 7 Norte 19 Norte 0 -- -- 34
2019-05-22 15:00:00 22.6 6 Noroeste 15 Oeste 0 -- -- 38
2019-05-22 14:00:00 20.8 3 Norte -- -- -- -- -- 37
2019-05-22 13:00:00 -- -- -- -- -- -- -- -- --
2019-05-22 12:00:00 -- -- -- -- -- -- -- -- --
2019-05-22 11:00:00 15.6 3 Sur 8 Sudoeste 0 -- -- 60
2019-05-22 10:00:00 12.4 2 Sudoeste 7 Sur 0 -- -- 73
2019-05-22 09:00:00 8.2 3 Sur 5 Sur 0 -- -- 90
2019-05-22 08:00:00 5.8 2 Sudeste 4 Norte 0 -- -- 94
2019-05-22 07:00:00 5.2 0 Calma 5 Norte 0 -- -- 94
2019-05-22 06:00:00 6.1 0 Calma 13 Este 0 -- -- 86
2019-05-22 05:00:00 6.9 4 Nordeste 9 Nordeste 0 -- -- 79
2019-05-22 04:00:00 6.7 2 Nordeste 8 Nordeste 0 -- -- 77
2019-05-22 03:00:00 7.2 6 Nordeste 9 Norte 0 -- -- 74
2019-05-22 02:00:00 8.3 3 Este 10 Este 0 -- -- 71
2019-05-22 01:00:00 11.5 7 Este 14 Nordeste 0 -- -- 57
2019-05-22 00:00:00 11 3 Este 17 Noroeste 0 -- -- 63